createdAt,value
2019-03-09T00:00:43.874Z,74.00
2019-03-09T00:03:15.088Z,74.20
2019-03-09T00:05:46.224Z,73.44
2019-03-09T00:08:17.450Z,73.14
2019-03-09T00:10:48.703Z,73.49
2019-03-09T00:13:20.020Z,72.58
2019-03-09T00:15:51.262Z,72.18
2019-03-09T00:18:22.532Z,72.61
2019-03-09T00:20:53.805Z,72.09
2019-03-09T00:23:42.771Z,71.21
2019-03-09T00:26:21.792Z,70.92
2019-03-09T00:29:18.109Z,70.88
2019-03-09T00:31:55.632Z,71.68
2019-03-09T00:34:26.920Z,72.01
2019-03-09T00:36:58.489Z,72.76
2019-03-09T00:39:29.774Z,73.58
2019-03-09T00:42:01.018Z,73.65
2019-03-09T00:44:32.333Z,73.52
2019-03-09T00:47:03.604Z,74.70
2019-03-09T00:49:34.902Z,76.86
2019-03-09T00:52:06.185Z,76.76
2019-03-09T00:54:37.496Z,77.79
2019-03-09T00:57:08.803Z,79.53
2019-03-09T00:59:40.156Z,80.61
2019-03-09T01:02:11.423Z,81.49
2019-03-09T01:04:42.661Z,82.41
2019-03-09T01:07:14.002Z,83.21
2019-03-09T01:09:45.266Z,84.37
2019-03-09T01:12:16.523Z,84.70
2019-03-09T01:14:47.831Z,84.71
2019-03-09T01:17:19.115Z,85.31
2019-03-09T01:19:50.396Z,85.68
2019-03-09T01:22:21.728Z,85.67
2019-03-09T01:24:53.002Z,86.66
2019-03-09T01:27:24.282Z,86.46
2019-03-09T01:29:55.609Z,86.87
2019-03-09T01:32:26.864Z,87.80
2019-03-09T01:34:58.136Z,88.64
2019-03-09T01:37:29.404Z,88.57
2019-03-09T01:40:00.640Z,88.42
2019-03-09T01:42:31.902Z,88.96
2019-03-09T01:45:03.215Z,88.90
2019-03-09T01:47:34.674Z,90.39
2019-03-09T01:50:06.548Z,90.17
2019-03-09T01:52:37.806Z,91.16
2019-03-09T01:55:09.265Z,90.82
2019-03-09T01:57:40.550Z,92.01
2019-03-09T02:00:12.438Z,91.75
2019-03-09T02:02:43.835Z,92.44
2019-03-09T02:05:16.063Z,92.83
2019-03-09T02:07:47.337Z,92.46
2019-03-09T02:10:19.385Z,92.64
2019-03-09T02:12:50.620Z,93.34
2019-03-09T02:15:21.860Z,94.05
2019-03-09T02:17:53.159Z,93.76
2019-03-09T02:20:24.447Z,94.17
2019-03-09T02:22:55.695Z,94.05
2019-03-09T02:25:26.894Z,94.93
2019-03-09T02:27:58.101Z,95.87
2019-03-09T02:30:29.388Z,97.15
2019-03-09T02:33:00.641Z,97.69
2019-03-09T02:35:31.902Z,97.19
2019-03-09T02:38:10.320Z,97.51
2019-03-09T02:40:41.574Z,97.39
2019-03-09T02:43:12.852Z,97.57
2019-03-09T02:45:44.118Z,96.83
2019-03-09T02:48:15.389Z,97.04
2019-03-09T02:50:56.326Z,97.28
2019-03-09T02:53:28.302Z,97.66
2019-03-09T02:55:59.570Z,98.29
2019-03-09T02:58:30.906Z,98.27
2019-03-09T03:01:19.451Z,99.22
2019-03-09T03:03:50.704Z,99.77
2019-03-09T03:06:21.964Z,100.00
2019-03-09T03:08:53.219Z,100.00
2019-03-09T03:11:24.469Z,100.00
2019-03-09T03:13:55.817Z,100.00
2019-03-09T03:16:27.072Z,100.00
2019-03-09T03:18:58.322Z,100.00
2019-03-09T03:21:29.560Z,100.00
2019-03-09T03:24:00.819Z,100.00
2019-03-09T03:26:32.052Z,100.00
2019-03-09T03:29:03.309Z,100.00
2019-03-09T03:31:34.563Z,100.00
2019-03-09T03:34:05.883Z,100.00
2019-03-09T03:36:37.130Z,100.00
2019-03-09T03:39:09.104Z,100.00
2019-03-09T03:41:40.382Z,100.00
2019-03-09T03:44:11.626Z,100.00
2019-03-09T03:46:42.888Z,100.00
2019-03-09T03:49:14.203Z,100.00
2019-03-09T03:51:45.433Z,100.00
2019-03-09T03:54:16.687Z,100.00
2019-03-09T03:56:47.946Z,100.00
2019-03-09T03:59:19.240Z,100.00
2019-03-09T04:01:50.494Z,100.00
2019-03-09T04:04:21.743Z,100.00
2019-03-09T04:06:53.313Z,100.00
2019-03-09T04:09:24.672Z,100.00
2019-03-09T04:11:56.050Z,100.00
2019-03-09T04:14:27.319Z,100.00
2019-03-09T04:16:58.570Z,100.00
2019-03-09T04:19:29.828Z,100.00
2019-03-09T04:22:01.056Z,100.00
2019-03-09T04:24:32.358Z,100.00
2019-03-09T04:27:03.621Z,100.00
2019-03-09T04:29:34.893Z,100.00
2019-03-09T04:32:06.128Z,100.00
2019-03-09T04:34:37.373Z,100.00
2019-03-09T04:37:08.663Z,100.00
2019-03-09T04:39:39.921Z,100.00
2019-03-09T04:42:11.166Z,100.00
2019-03-09T04:44:42.433Z,100.00
2019-03-09T04:47:13.696Z,100.00
2019-03-09T04:49:44.931Z,100.00
2019-03-09T04:52:16.230Z,100.00
2019-03-09T04:54:47.506Z,100.00
2019-03-09T04:57:18.976Z,100.00
2019-03-09T04:59:50.433Z,100.00
2019-03-09T05:02:21.725Z,100.00
2019-03-09T05:04:54.169Z,100.00
2019-03-09T05:08:03.016Z,100.00
2019-03-09T05:10:55.136Z,100.00
2019-03-09T05:13:43.254Z,100.00
2019-03-09T05:16:14.507Z,100.00
2019-03-09T05:18:45.722Z,100.00
2019-03-09T05:21:17.004Z,100.00
2019-03-09T05:23:48.317Z,100.00
2019-03-09T05:26:19.561Z,100.00
2019-03-09T05:28:50.818Z,100.00
2019-03-09T05:31:22.121Z,100.00
2019-03-09T05:33:53.378Z,100.00
2019-03-09T05:36:25.033Z,100.00
2019-03-09T05:38:56.273Z,99.91
2019-03-09T05:41:27.560Z,99.86
2019-03-09T05:43:58.828Z,99.91
2019-03-09T05:46:30.082Z,99.02
2019-03-09T05:49:01.322Z,98.47
2019-03-09T05:51:32.630Z,97.61
2019-03-09T05:54:03.903Z,97.70
2019-03-09T05:56:35.135Z,97.31
2019-03-09T05:59:06.404Z,97.01
2019-03-09T06:01:37.709Z,96.34
2019-03-09T06:04:09.100Z,96.36
2019-03-09T06:06:40.503Z,95.70
2019-03-09T06:09:11.749Z,95.40
2019-03-09T06:11:43.099Z,94.96
2019-03-09T06:14:14.420Z,95.13
2019-03-09T06:16:45.680Z,94.93
2019-03-09T06:19:16.938Z,95.36
2019-03-09T06:21:48.245Z,95.43
2019-03-09T06:24:19.465Z,96.00
2019-03-09T06:26:50.760Z,95.78
2019-03-09T06:29:21.991Z,95.93
2019-03-09T06:32:46.621Z,94.95
2019-03-09T06:35:17.899Z,95.30
2019-03-09T06:37:57.849Z,94.90
2019-03-09T06:40:29.127Z,93.76
2019-03-09T06:43:00.392Z,93.47
2019-03-09T06:45:31.669Z,93.03
2019-03-09T06:48:02.933Z,91.72
2019-03-09T06:50:34.288Z,91.48
2019-03-09T06:53:05.540Z,91.26
2019-03-09T06:55:36.811Z,90.69
2019-03-09T06:58:08.073Z,90.56
2019-03-09T07:00:41.546Z,91.01
2019-03-09T07:03:13.699Z,91.86
2019-03-09T07:05:44.979Z,92.28
2019-03-09T07:08:16.240Z,91.46
2019-03-09T07:10:47.517Z,90.79
2019-03-09T07:13:18.773Z,89.79
2019-03-09T07:15:50.191Z,89.54
2019-03-09T07:18:35.419Z,89.17
2019-03-09T07:21:06.765Z,88.69
2019-03-09T07:23:38.064Z,89.44
2019-03-09T07:26:09.333Z,90.07
2019-03-09T07:28:40.616Z,90.66
2019-03-09T07:31:11.915Z,90.38
2019-03-09T07:33:43.220Z,91.15
2019-03-09T07:36:14.481Z,91.38
2019-03-09T07:38:45.776Z,90.64
2019-03-09T07:41:19.463Z,90.00
2019-03-09T07:43:50.798Z,90.83
2019-03-09T07:46:22.047Z,90.50
2019-03-09T07:48:53.315Z,90.97
2019-03-09T07:51:24.604Z,90.33
2019-03-09T07:53:55.922Z,90.26
2019-03-09T07:56:27.299Z,90.24
2019-03-09T07:58:58.526Z,89.62
2019-03-09T08:01:29.819Z,89.92
2019-03-09T08:04:01.077Z,89.94
2019-03-09T08:06:32.335Z,89.83
2019-03-09T08:09:04.961Z,89.62
2019-03-09T08:11:36.212Z,89.06
2019-03-09T08:14:07.468Z,89.35
2019-03-09T08:16:38.782Z,89.60
2019-03-09T08:19:10.083Z,89.69
2019-03-09T08:21:41.338Z,89.43
2019-03-09T08:24:12.874Z,89.48
2019-03-09T08:26:44.139Z,88.93
2019-03-09T08:29:15.447Z,88.68
2019-03-09T08:31:46.900Z,87.64
2019-03-09T08:34:18.653Z,86.97
2019-03-09T08:36:49.966Z,87.46
2019-03-09T08:39:21.274Z,87.63
2019-03-09T08:41:52.531Z,87.90
2019-03-09T08:44:23.818Z,87.46
2019-03-09T08:46:55.040Z,86.86
2019-03-09T08:49:26.292Z,87.53
2019-03-09T08:51:57.544Z,86.89
2019-03-09T08:54:28.811Z,87.47
2019-03-09T08:57:00.032Z,87.06
2019-03-09T08:59:31.356Z,87.31
2019-03-09T09:02:02.633Z,87.10
2019-03-09T09:04:34.735Z,87.30
2019-03-09T09:07:06.117Z,86.82
2019-03-09T09:09:37.382Z,86.99
2019-03-09T09:12:08.650Z,86.73
2019-03-09T09:14:39.905Z,86.14
2019-03-09T09:17:11.200Z,85.72
2019-03-09T09:19:42.443Z,85.70
2019-03-09T09:22:13.745Z,84.59
2019-03-09T09:24:45.019Z,83.83
2019-03-09T09:27:19.703Z,83.24
2019-03-09T09:29:50.955Z,83.23
2019-03-09T09:32:22.272Z,81.94
2019-03-09T09:34:53.546Z,81.86
2019-03-09T09:37:24.876Z,81.10
2019-03-09T09:39:56.258Z,80.77
2019-03-09T09:42:27.487Z,80.94
2019-03-09T09:44:58.781Z,80.76
2019-03-09T09:47:30.008Z,80.14
2019-03-09T09:50:01.351Z,79.71
2019-03-09T09:52:32.654Z,80.24
2019-03-09T09:55:03.915Z,79.97
2019-03-09T09:57:35.173Z,79.91
2019-03-09T10:00:09.493Z,79.61
2019-03-09T10:02:40.803Z,78.85
2019-03-09T10:05:12.228Z,79.56
2019-03-09T10:07:43.505Z,79.60
2019-03-09T10:10:16.668Z,79.47
2019-03-09T10:12:47.991Z,80.12
2019-03-09T10:15:22.204Z,80.54
2019-03-09T10:17:53.513Z,79.66
2019-03-09T10:20:24.820Z,79.51
2019-03-09T10:23:04.189Z,79.03
2019-03-09T10:25:29.057Z,78.78
2019-03-09T10:28:00.351Z,78.19
2019-03-09T10:30:31.647Z,77.61
2019-03-09T10:33:02.889Z,77.38
2019-03-09T10:35:34.219Z,78.03
2019-03-09T10:38:05.602Z,77.41
2019-03-09T10:40:36.949Z,77.80
2019-03-09T10:43:08.190Z,78.01
2019-03-09T10:45:39.466Z,77.88
2019-03-09T10:48:10.735Z,77.85
2019-03-09T10:50:42.015Z,77.86
2019-03-09T10:53:13.257Z,77.43
2019-03-09T10:55:44.550Z,77.20
2019-03-09T10:58:15.908Z,76.62
2019-03-09T11:00:47.214Z,76.63
2019-03-09T11:03:18.472Z,76.41
2019-03-09T11:05:49.756Z,76.25
2019-03-09T11:08:21.029Z,76.14
2019-03-09T11:10:52.264Z,75.97
2019-03-09T11:13:23.576Z,76.14
2019-03-09T11:15:54.873Z,75.72
2019-03-09T11:18:26.406Z,74.96
2019-03-09T11:20:57.726Z,74.26
2019-03-09T11:23:29.474Z,73.92
2019-03-09T11:26:01.401Z,73.27
2019-03-09T11:28:32.726Z,72.75
2019-03-09T11:31:03.983Z,72.37
2019-03-09T11:33:35.272Z,71.57
2019-03-09T11:36:06.620Z,71.32
2019-03-09T11:38:37.941Z,71.88
2019-03-09T11:41:18.806Z,71.02
2019-03-09T11:43:42.202Z,70.30
2019-03-09T11:46:13.466Z,70.43
2019-03-09T11:48:45.042Z,70.33
2019-03-09T11:51:16.315Z,70.08
2019-03-09T11:53:47.674Z,69.81
2019-03-09T11:56:18.900Z,69.68
2019-03-09T11:58:50.245Z,69.08
2019-03-09T12:01:21.549Z,68.90
2019-03-09T12:03:52.935Z,68.35
2019-03-09T12:06:24.486Z,66.94
2019-03-09T12:08:57.284Z,66.80
2019-03-09T12:11:28.575Z,65.77
2019-03-09T12:13:59.869Z,66.04
2019-03-09T12:16:31.169Z,65.24
2019-03-09T12:19:03.031Z,65.22
2019-03-09T12:21:34.310Z,64.81
2019-03-09T12:24:15.799Z,63.60
2019-03-09T12:26:38.618Z,63.04
2019-03-09T12:29:09.915Z,62.32
2019-03-09T12:31:41.185Z,62.58
2019-03-09T12:34:12.421Z,61.65
2019-03-09T12:36:43.755Z,61.65
2019-03-09T12:39:15.064Z,62.13
2019-03-09T12:41:46.662Z,62.32
2019-03-09T12:44:17.915Z,62.55
2019-03-09T12:46:49.391Z,62.40
2019-03-09T12:49:20.692Z,61.57
2019-03-09T12:51:52.055Z,60.16
2019-03-09T12:54:23.340Z,59.14
2019-03-09T12:56:54.639Z,58.47
2019-03-09T12:59:25.889Z,58.33
2019-03-09T13:01:57.203Z,58.07
2019-03-09T13:04:28.509Z,58.01
2019-03-09T13:06:59.863Z,58.41
2019-03-09T13:09:31.208Z,57.56
2019-03-09T13:12:02.499Z,54.19
2019-03-09T13:14:33.811Z,54.20
2019-03-09T13:17:05.114Z,53.42
2019-03-09T13:19:36.476Z,52.31
2019-03-09T13:22:07.756Z,52.05
2019-03-09T13:24:39.113Z,53.01
2019-03-09T13:27:10.443Z,54.34
2019-03-09T13:29:41.792Z,53.81
2019-03-09T13:32:13.113Z,55.37
2019-03-09T13:34:44.515Z,56.07
2019-03-09T13:37:15.775Z,56.65
2019-03-09T13:39:47.122Z,57.10
2019-03-09T13:42:18.397Z,58.30
2019-03-09T13:44:49.672Z,60.46
2019-03-09T13:47:20.962Z,62.34
2019-03-09T13:49:52.255Z,63.88
2019-03-09T13:52:23.585Z,65.25
2019-03-09T13:54:55.169Z,65.40
2019-03-09T13:57:26.489Z,65.64
2019-03-09T13:59:57.857Z,66.50
2019-03-09T14:02:29.395Z,67.68
2019-03-09T14:05:00.663Z,70.92
2019-03-09T14:07:31.959Z,72.73
2019-03-09T14:10:03.314Z,76.57
2019-03-09T14:12:34.584Z,73.66
2019-03-09T14:15:06.288Z,75.79
2019-03-09T14:17:37.589Z,78.25
2019-03-09T14:20:09.630Z,79.59
2019-03-09T14:22:40.999Z,80.58
2019-03-09T14:25:12.471Z,81.08
2019-03-09T14:27:43.744Z,80.77
2019-03-09T14:30:16.343Z,81.10
2019-03-09T14:32:47.595Z,81.56
2019-03-09T14:35:19.072Z,82.81
2019-03-09T14:37:50.441Z,84.31
2019-03-09T14:40:21.755Z,84.18
2019-03-09T14:42:53.030Z,84.73
2019-03-09T14:45:24.383Z,84.89
2019-03-09T14:47:55.731Z,81.77
2019-03-09T14:50:27.023Z,81.00
2019-03-09T14:52:58.377Z,82.36
2019-03-09T14:55:29.714Z,83.07
2019-03-09T14:58:01.025Z,84.84
2019-03-09T15:00:32.435Z,87.33
2019-03-09T15:03:03.745Z,88.58
2019-03-09T15:05:35.030Z,89.82
2019-03-09T15:08:06.355Z,87.38
2019-03-09T15:10:37.708Z,83.01
2019-03-09T15:13:08.964Z,82.03
2019-03-09T15:15:40.259Z,82.33
2019-03-09T15:18:11.502Z,81.66
2019-03-09T15:20:42.885Z,79.79
2019-03-09T15:23:14.164Z,79.12
2019-03-09T15:25:47.338Z,79.48
2019-03-09T15:28:18.579Z,80.39
2019-03-09T15:30:49.856Z,81.04
2019-03-09T15:33:21.913Z,81.81
2019-03-09T15:35:53.327Z,82.25
2019-03-09T15:38:24.584Z,83.18
2019-03-09T15:40:55.921Z,83.75
2019-03-09T15:43:27.224Z,84.00
2019-03-09T15:45:58.494Z,84.93
2019-03-09T15:48:29.821Z,84.82
2019-03-09T15:51:01.141Z,84.04
2019-03-09T15:53:32.514Z,84.46
2019-03-09T15:56:03.853Z,82.27
2019-03-09T15:58:37.118Z,81.98
2019-03-09T16:01:08.321Z,80.95
2019-03-09T16:03:39.641Z,81.58
2019-03-09T16:06:10.992Z,81.87
2019-03-09T16:08:42.241Z,81.69
2019-03-09T16:11:13.560Z,82.49
2019-03-09T16:13:44.925Z,82.50
2019-03-09T16:16:16.230Z,82.96
2019-03-09T16:18:47.555Z,83.55
2019-03-09T16:21:18.836Z,84.67
2019-03-09T16:23:50.304Z,85.16
2019-03-09T16:26:21.635Z,81.04
2019-03-09T16:28:52.945Z,82.41
2019-03-09T16:31:24.149Z,83.91
2019-03-09T16:33:55.770Z,83.34
2019-03-09T16:36:27.072Z,79.68
2019-03-09T16:38:58.355Z,78.48
2019-03-09T16:41:29.859Z,78.54
2019-03-09T16:44:01.260Z,77.73
2019-03-09T16:46:32.569Z,77.48
2019-03-09T16:49:03.890Z,77.85
2019-03-09T16:51:35.191Z,77.89
2019-03-09T16:54:06.515Z,76.59
2019-03-09T16:56:37.831Z,75.12
2019-03-09T16:59:09.105Z,75.12
2019-03-09T17:01:40.393Z,74.77
2019-03-09T17:04:11.703Z,73.92
2019-03-09T17:06:43.031Z,73.81
2019-03-09T17:09:14.300Z,72.98
2019-03-09T17:11:45.629Z,73.58
2019-03-09T17:14:17.016Z,73.29
2019-03-09T17:16:48.329Z,74.29
2019-03-09T17:19:19.619Z,74.92
2019-03-09T17:21:50.910Z,74.34
2019-03-09T17:24:22.301Z,74.70
2019-03-09T17:26:53.634Z,74.64
2019-03-09T17:29:24.926Z,74.89
2019-03-09T17:31:56.253Z,74.60
2019-03-09T17:34:27.543Z,74.79
2019-03-09T17:37:01.003Z,75.11
2019-03-09T17:39:32.329Z,74.93
2019-03-09T17:42:03.674Z,74.86
2019-03-09T17:44:35.044Z,74.94
2019-03-09T17:47:06.367Z,74.59
2019-03-09T17:49:37.701Z,74.73
2019-03-09T17:52:09.029Z,74.30
2019-03-09T17:54:40.379Z,73.28
2019-03-09T17:57:11.749Z,74.29
2019-03-09T17:59:43.071Z,74.49
2019-03-09T18:02:14.346Z,74.08
2019-03-09T18:04:45.641Z,73.81
2019-03-09T18:07:16.976Z,74.46
2019-03-09T18:09:48.286Z,75.08
2019-03-09T18:12:19.517Z,73.90
2019-03-09T18:14:51.010Z,73.29
2019-03-09T18:17:22.298Z,73.51
2019-03-09T18:19:53.637Z,72.87
2019-03-09T18:22:24.979Z,72.69
2019-03-09T18:24:56.364Z,72.75
2019-03-09T18:27:27.669Z,73.29
2019-03-09T18:29:59.026Z,73.56
2019-03-09T18:32:30.362Z,72.91
2019-03-09T18:35:04.916Z,73.06
2019-03-09T18:37:36.237Z,73.36
2019-03-09T18:40:08.366Z,73.15
2019-03-09T18:42:39.669Z,74.09
2019-03-09T18:45:14.212Z,73.67
2019-03-09T18:47:45.574Z,73.91
2019-03-09T18:50:16.957Z,74.05
2019-03-09T18:52:48.405Z,74.08
2019-03-09T18:55:19.851Z,74.21
2019-03-09T18:57:51.175Z,74.65
2019-03-09T19:00:22.471Z,74.98
2019-03-09T19:02:53.775Z,74.48
2019-03-09T19:05:25.150Z,74.91
2019-03-09T19:07:56.462Z,74.79
2019-03-09T19:10:27.792Z,74.20
2019-03-09T19:12:59.120Z,74.37
2019-03-09T19:15:30.444Z,74.94
2019-03-09T19:18:01.728Z,75.26
2019-03-09T19:20:33.048Z,75.45
2019-03-09T19:23:04.353Z,75.84
2019-03-09T19:25:35.724Z,75.72
2019-03-09T19:28:07.102Z,74.94
2019-03-09T19:30:38.493Z,75.62
2019-03-09T19:33:09.762Z,75.81
2019-03-09T19:35:41.160Z,75.98
2019-03-09T19:38:12.429Z,76.04
2019-03-09T19:40:43.726Z,76.30
2019-03-09T19:43:15.046Z,76.86
2019-03-09T19:45:46.379Z,76.97
2019-03-09T19:48:17.728Z,77.05
2019-03-09T19:50:49.081Z,77.32
2019-03-09T19:53:20.419Z,77.32
2019-03-09T19:55:51.725Z,76.98
2019-03-09T19:58:23.072Z,77.14
2019-03-09T20:00:54.386Z,77.39
2019-03-09T20:03:25.732Z,76.97
2019-03-09T20:05:57.049Z,76.46
2019-03-09T20:08:28.374Z,76.38
2019-03-09T20:10:59.744Z,76.66
2019-03-09T20:13:31.117Z,77.11
2019-03-09T20:16:02.542Z,76.73
2019-03-09T20:18:33.860Z,77.20
2019-03-09T20:21:05.200Z,77.02
2019-03-09T20:23:36.499Z,77.20
2019-03-09T20:26:07.874Z,77.10
2019-03-09T20:28:39.195Z,77.28
2019-03-09T20:31:10.508Z,76.49
2019-03-09T20:33:41.830Z,77.13
2019-03-09T20:36:13.153Z,75.83
2019-03-09T20:38:44.489Z,76.63
2019-03-09T20:41:15.808Z,76.33
2019-03-09T20:43:47.128Z,75.83
2019-03-09T20:46:18.442Z,75.59
2019-03-09T20:48:49.731Z,75.09
2019-03-09T20:51:21.044Z,75.27
2019-03-09T20:53:52.345Z,74.70
2019-03-09T20:56:23.695Z,74.37
2019-03-09T20:58:55.055Z,74.10
2019-03-09T21:01:26.394Z,73.48
2019-03-09T21:03:57.728Z,72.80
2019-03-09T21:06:29.087Z,71.73
2019-03-09T21:09:00.373Z,72.03
2019-03-09T21:11:31.668Z,70.87
2019-03-09T21:14:03.019Z,70.98
2019-03-09T21:16:34.459Z,71.20
2019-03-09T21:19:05.865Z,70.55
2019-03-09T21:21:37.235Z,70.48
2019-03-09T21:24:08.534Z,70.71
2019-03-09T21:26:39.981Z,70.06
2019-03-09T21:29:11.303Z,70.31
2019-03-09T21:31:42.611Z,70.37
2019-03-09T21:34:14.017Z,69.72
2019-03-09T21:36:45.432Z,70.04
2019-03-09T21:39:17.664Z,70.62
2019-03-09T21:41:48.978Z,70.30
2019-03-09T21:44:20.327Z,70.37
2019-03-09T21:46:51.638Z,70.46
2019-03-09T21:49:22.966Z,70.32
2019-03-09T21:51:54.360Z,70.30
2019-03-09T21:54:25.652Z,69.14
2019-03-09T21:56:57.053Z,69.60
2019-03-09T21:59:28.386Z,69.57
2019-03-09T22:01:59.694Z,69.05
2019-03-09T22:04:31.018Z,68.79
2019-03-09T22:07:02.383Z,69.23
2019-03-09T22:09:33.708Z,69.06
2019-03-09T22:12:05.022Z,68.47
2019-03-09T22:14:36.342Z,67.92
2019-03-09T22:17:07.743Z,68.16
2019-03-09T22:19:39.021Z,67.88
2019-03-09T22:22:10.491Z,67.43
2019-03-09T22:24:41.918Z,67.82
2019-03-09T22:27:13.269Z,67.68
2019-03-09T22:29:44.654Z,67.14
2019-03-09T22:32:19.688Z,66.42
2019-03-09T22:34:51.015Z,66.48
2019-03-09T22:37:22.318Z,66.32
2019-03-09T22:39:53.904Z,66.23
2019-03-09T22:42:25.228Z,66.49
2019-03-09T22:44:56.560Z,66.51
2019-03-09T22:47:27.863Z,66.37
2019-03-09T22:49:59.205Z,66.24
2019-03-09T22:52:30.575Z,66.52
2019-03-09T22:55:01.918Z,66.33
2019-03-09T22:57:33.867Z,66.15
2019-03-09T23:00:05.730Z,65.70
2019-03-09T23:02:37.145Z,65.95
2019-03-09T23:05:09.096Z,65.45
2019-03-09T23:07:40.447Z,65.56
2019-03-09T23:10:14.408Z,65.64
2019-03-09T23:12:45.756Z,65.17
2019-03-09T23:15:17.423Z,66.02
2019-03-09T23:17:48.722Z,65.09
2019-03-09T23:20:20.107Z,65.24
2019-03-09T23:22:51.408Z,65.25
2019-03-09T23:25:23.233Z,64.99
2019-03-09T23:27:54.491Z,64.27
2019-03-09T23:30:25.800Z,64.73
2019-03-09T23:32:57.136Z,64.52
2019-03-09T23:35:28.454Z,64.97
2019-03-09T23:37:59.768Z,64.74
2019-03-09T23:40:31.013Z,64.82
2019-03-09T23:43:02.296Z,65.00
2019-03-09T23:45:33.580Z,64.60
2019-03-09T23:48:04.867Z,64.38
2019-03-09T23:50:36.265Z,64.89
2019-03-09T23:53:07.580Z,64.87
2019-03-09T23:55:38.896Z,64.41
2019-03-09T23:58:10.209Z,64.57
